Time;durP1;ratioP1;P1;durP2;ratioP2;P2;SDS_P1;SDS_P2;PMS_P1;PMS_P2;Temp;Humidity;BMP_temperature;BMP_pressure;BME280_temperature;BME280_humidity;BME280_pressure;Samples;Min_cycle;Max_cycle;Signal;HPM_P1;HPM_P2
2023/10/24 00:01:07;;;;;;;2.73;2.30;;;11.30;99.90;;;;;;5076073;28;20180;-79
2023/10/24 00:03:33;;;;;;;3.30;2.67;;;11.40;99.90;;;;;;5076935;28;20615;-78
2023/10/24 00:05:59;;;;;;;4.40;2.33;;;11.30;99.90;;;;;;5075180;28;20195;-76
2023/10/24 00:08:24;;;;;;;4.00;2.47;;;11.30;99.90;;;;;;5076019;28;20179;-79
2023/10/24 00:11:02;;;;;;;3.90;2.50;;;11.30;99.90;;;;;;5077111;28;20656;-78
2023/10/24 00:13:28;;;;;;;3.27;2.70;;;11.30;99.90;;;;;;5078899;28;20167;-80
2023/10/24 00:15:54;;;;;;;6.80;2.47;;;11.30;99.90;;;;;;5078417;28;20203;-78
2023/10/24 00:18:19;;;;;;;2.63;2.43;;;11.40;99.90;;;;;;5077902;28;20210;-77
2023/10/24 00:20:45;;;;;;;2.37;2.10;;;11.40;99.90;;;;;;5081371;28;20217;-78
2023/10/24 00:23:11;;;;;;;2.70;2.50;;;11.40;99.90;;;;;;5088970;28;20184;-79
2023/10/24 00:25:37;;;;;;;2.70;2.50;;;11.40;99.90;;;;;;5097468;28;20237;-77
2023/10/24 00:28:03;;;;;;;3.10;2.67;;;11.30;99.90;;;;;;5090110;28;20201;-78
2023/10/24 00:30:29;;;;;;;3.07;2.50;;;11.30;99.90;;;;;;5093680;28;20161;-76
2023/10/24 00:32:54;;;;;;;3.43;2.53;;;11.30;99.90;;;;;;5084385;28;20188;-76
2023/10/24 00:35:20;;;;;;;6.80;3.00;;;11.30;99.90;;;;;;5076855;28;20228;-77
2023/10/24 00:37:46;;;;;;;5.47;2.43;;;11.20;99.90;;;;;;5077656;28;20186;-77
2023/10/24 00:40:12;;;;;;;2.63;2.27;;;11.20;99.90;;;;;;5075629;28;20259;-78
2023/10/24 00:42:38;;;;;;;2.33;2.20;;;11.10;99.90;;;;;;5075561;28;20177;-79
2023/10/24 00:45:08;;;;;;;2.20;1.93;;;11.10;99.90;;;;;;5074682;28;20575;-80
2023/10/24 00:47:34;;;;;;;2.60;2.40;;;12.70;99.90;;;;;;5073480;28;20214;-79
2023/10/24 00:50:00;;;;;;;3.33;2.20;;;11.00;99.90;;;;;;5074768;28;20276;-79
2023/10/24 00:52:26;;;;;;;8.27;2.67;;;11.10;99.90;;;;;;5074940;28;20181;-77
2023/10/24 00:54:53;;;;;;;2.47;2.27;;;11.30;99.90;;;;;;5073759;28;20178;-79
2023/10/24 00:57:19;;;;;;;2.60;2.40;;;11.00;99.90;;;;;;5074494;28;20257;-78
2023/10/24 00:59:45;;;;;;;2.10;2.00;;;11.00;99.90;;;;;;5075150;28;20645;-79
2023/10/24 01:02:12;;;;;;;2.90;2.43;;;11.00;99.90;;;;;;5074915;28;20249;-77
2023/10/24 01:04:39;;;;;;;5.57;2.67;;;11.00;99.90;;;;;;5077228;28;20175;-78
2023/10/24 01:07:05;;;;;;;2.40;2.20;;;10.90;99.90;;;;;;5075385;28;20269;-79
2023/10/24 01:09:31;;;;;;;3.23;2.87;;;10.90;99.90;;;;;;5074536;28;20171;-77
2023/10/24 01:11:57;;;;;;;2.33;2.20;;;11.00;99.90;;;;;;5074695;28;20234;-78
2023/10/24 01:14:23;;;;;;;2.80;2.40;;;11.00;99.90;;;;;;5078878;28;20176;-79
2023/10/24 01:16:49;;;;;;;3.27;2.60;;;11.00;99.90;;;;;;5084874;28;20204;-78
2023/10/24 01:19:15;;;;;;;3.93;2.63;;;11.00;99.90;;;;;;5090658;28;20172;-75
2023/10/24 01:21:43;;;;;;;2.57;2.37;;;11.00;99.90;;;;;;5086301;28;20180;-77
2023/10/24 01:24:10;;;;;;;2.60;2.40;;;10.90;99.90;;;;;;5079339;28;20179;-79
2023/10/24 01:26:38;;;;;;;2.80;2.60;;;11.00;99.90;;;;;;5076483;28;20295;-79
2023/10/24 01:29:04;;;;;;;2.70;2.50;;;11.00;99.90;;;;;;5081277;28;20618;-78
2023/10/24 01:31:30;;;;;;;3.13;2.53;;;11.00;99.90;;;;;;5076815;28;20184;-75
2023/10/24 01:33:55;;;;;;;4.23;2.67;;;11.00;99.90;;;;;;5076517;28;20180;-75
2023/10/24 01:36:21;;;;;;;4.17;2.70;;;11.10;99.90;;;;;;5074435;28;20172;-78
2023/10/24 01:38:47;;;;;;;2.70;2.57;;;11.10;99.90;;;;;;5075920;28;20175;-77
2023/10/24 01:41:12;;;;;;;4.70;2.53;;;11.10;99.90;;;;;;5075089;28;20181;-77
2023/10/24 01:43:38;;;;;;;3.37;2.40;;;11.00;99.90;;;;;;5075759;28;20183;-78
2023/10/24 01:46:04;;;;;;;3.27;2.60;;;11.10;99.90;;;;;;5076985;28;20198;-77
2023/10/24 01:48:30;;;;;;;3.07;2.80;;;11.10;99.90;;;;;;5074994;28;20175;-79
2023/10/24 01:50:55;;;;;;;4.43;2.40;;;11.00;99.90;;;;;;5079061;28;20228;-80
2023/10/24 01:53:22;;;;;;;4.67;3.03;;;11.10;99.90;;;;;;5073824;28;20193;-78
2023/10/24 01:55:48;;;;;;;2.60;2.40;;;11.10;99.90;;;;;;5073535;28;20246;-78
2023/10/24 01:58:14;;;;;;;3.30;2.83;;;11.10;99.90;;;;;;5075179;28;20171;-77
2023/10/24 02:00:40;;;;;;;2.73;2.53;;;11.10;99.90;;;;;;5090376;28;20205;-80
2023/10/24 02:03:05;;;;;;;3.30;2.30;;;11.10;99.90;;;;;;5098749;28;20202;-78
2023/10/24 02:05:31;;;;;;;2.97;2.77;;;11.20;99.90;;;;;;5079244;28;20197;-76
2023/10/24 02:07:57;;;;;;;3.10;2.27;;;11.20;99.90;;;;;;5073190;28;20220;-76
2023/10/24 02:10:22;;;;;;;4.10;3.00;;;11.10;99.90;;;;;;5073564;28;20179;-77
2023/10/24 02:12:50;;;;;;;3.77;2.63;;;11.10;99.90;;;;;;5073808;28;20631;-77
2023/10/24 02:15:15;;;;;;;4.60;2.93;;;11.10;99.90;;;;;;5075266;28;20226;-77
2023/10/24 02:17:41;;;;;;;2.77;2.50;;;11.00;99.90;;;;;;5073535;28;20164;-78
2023/10/24 02:20:10;;;;;;;5.27;2.93;;;11.10;99.90;;;;;;5072205;28;20177;-77
2023/10/24 02:22:36;;;;;;;3.33;2.70;;;11.20;99.90;;;;;;5072720;28;20176;-78
2023/10/24 02:25:02;;;;;;;4.33;3.73;;;11.20;99.90;;;;;;5073011;28;20219;-77
2023/10/24 02:27:27;;;;;;;2.90;2.70;;;11.20;99.90;;;;;;5073850;28;20219;-76
2023/10/24 02:30:09;;;;;;;4.80;3.00;;;11.20;99.90;;;;;;5060984;28;20204;-76
2023/10/24 02:32:34;;;;;;;3.03;2.70;;;11.20;99.90;;;;;;5073931;28;20179;-77
2023/10/24 02:35:00;;;;;;;4.63;2.93;;;11.10;99.90;;;;;;5073524;28;20168;-79
2023/10/24 02:37:26;;;;;;;4.10;2.50;;;11.10;99.90;;;;;;5074444;28;20803;-76
2023/10/24 02:39:52;;;;;;;3.57;2.87;;;11.10;99.90;;;;;;5074777;28;20253;-77
2023/10/24 02:42:17;;;;;;;3.83;2.83;;;11.20;99.90;;;;;;5072295;28;20177;-77
2023/10/24 02:44:48;;;;;;;3.23;2.50;;;11.20;99.90;;;;;;5074023;28;20176;-77
2023/10/24 02:47:14;;;;;;;3.47;2.43;;;11.20;99.90;;;;;;5074273;28;20208;-79
2023/10/24 02:49:40;;;;;;;4.60;3.10;;;11.30;99.90;;;;;;5073578;28;20173;-77
2023/10/24 02:52:05;;;;;;;5.47;2.60;;;11.30;99.90;;;;;;5073306;28;20174;-77
2023/10/24 02:54:33;;;;;;;2.93;2.67;;;11.30;99.90;;;;;;5073184;28;20192;-77
2023/10/24 02:56:59;;;;;;;4.37;2.80;;;11.30;99.90;;;;;;5074834;28;20181;-76
2023/10/24 02:59:25;;;;;;;3.63;2.60;;;11.20;99.90;;;;;;5073033;28;20249;-79
2023/10/24 03:01:51;;;;;;;3.77;2.73;;;11.10;99.90;;;;;;5073179;28;20176;-80
2023/10/24 03:04:17;;;;;;;4.33;2.73;;;11.20;99.90;;;;;;5075222;28;20640;-77
2023/10/24 03:06:43;;;;;;;5.43;3.17;;;11.20;99.90;;;;;;5089423;28;20306;-79
2023/10/24 03:09:08;;;;;;;3.77;2.93;;;11.20;99.90;;;;;;5089066;28;20215;-76
2023/10/24 03:11:34;;;;;;;3.17;2.93;;;11.20;99.90;;;;;;5073640;28;20541;-77
2023/10/24 03:14:00;;;;;;;4.00;2.57;;;11.20;99.90;;;;;;5074236;28;20279;-77
2023/10/24 03:16:27;;;;;;;4.90;3.03;;;11.20;99.90;;;;;;5074513;28;20200;-81
2023/10/24 03:18:53;;;;;;;4.40;2.90;;;11.20;99.90;;;;;;5072058;28;20161;-78
2023/10/24 03:21:19;;;;;;;4.73;2.90;;;11.20;99.90;;;;;;5074429;28;20182;-78
2023/10/24 03:23:48;;;;;;;4.57;2.90;;;11.30;99.90;;;;;;5076578;28;20780;-78
2023/10/24 03:26:13;;;;;;;5.57;3.33;;;12.70;99.90;;;;;;5076255;28;20223;-78
2023/10/24 03:28:39;;;;;;;3.37;2.83;;;11.30;99.90;;;;;;5075741;28;20262;-80
2023/10/24 03:31:08;;;;;;;3.17;2.70;;;11.30;99.90;;;;;;5076159;28;20170;-77
2023/10/24 03:33:34;;;;;;;4.20;3.10;;;11.20;99.90;;;;;;5075811;28;20288;-77
2023/10/24 03:36:01;;;;;;;3.00;2.70;;;11.20;99.90;;;;;;5092094;28;20170;-76
2023/10/24 03:38:27;;;;;;;4.87;3.37;;;11.20;99.90;;;;;;5095904;28;20211;-76
2023/10/24 03:40:54;;;;;;;6.37;2.80;;;11.20;99.90;;;;;;5081502;28;20702;-80
2023/10/24 03:43:20;;;;;;;3.03;2.73;;;11.20;99.90;;;;;;5078049;28;20182;-76
2023/10/24 03:45:46;;;;;;;7.00;3.13;;;11.20;99.90;;;;;;5077869;28;20169;-77
2023/10/24 03:48:12;;;;;;;4.40;3.13;;;11.30;99.90;;;;;;5075507;28;20214;-80
2023/10/24 03:50:39;;;;;;;4.23;3.03;;;11.40;99.90;;;;;;5076117;28;20495;-79
2023/10/24 03:53:06;;;;;;;3.47;2.83;;;11.50;99.90;;;;;;5075574;28;20638;-76
2023/10/24 03:55:35;;;;;;;4.47;3.00;;;11.60;99.90;;;;;;5074654;28;20235;-79
2023/10/24 03:58:01;;;;;;;3.23;2.90;;;11.70;99.90;;;;;;5075727;28;20171;-79
2023/10/24 04:00:27;;;;;;;5.80;3.33;;;11.70;99.90;;;;;;5075614;28;20181;-77
2023/10/24 04:02:53;;;;;;;3.20;2.80;;;11.70;99.90;;;;;;5076202;28;20228;-77
2023/10/24 04:05:20;;;;;;;3.73;3.30;;;11.70;99.90;;;;;;5075621;28;20188;-77
2023/10/24 04:07:46;;;;;;;3.93;3.20;;;11.80;99.90;;;;;;5076010;28;20216;-76
2023/10/24 04:10:12;;;;;;;5.43;2.90;;;11.70;99.90;;;;;;5076790;28;20273;-76
2023/10/24 04:12:39;;;;;;;4.90;3.07;;;11.80;99.90;;;;;;5080379;28;20168;-78
2023/10/24 04:15:06;;;;;;;2.93;2.73;;;11.80;99.90;;;;;;5084767;28;20205;-79
2023/10/24 04:17:35;;;;;;;4.50;3.00;;;11.80;99.90;;;;;;5075638;28;20265;-79
2023/10/24 04:20:01;;;;;;;4.70;3.00;;;11.80;99.90;;;;;;5074548;28;20645;-77
2023/10/24 04:22:27;;;;;;;3.13;2.67;;;11.80;99.90;;;;;;5075622;28;20192;-75
2023/10/24 04:24:54;;;;;;;5.93;3.20;;;11.80;99.90;;;;;;5076020;28;20179;-78
2023/10/24 04:27:19;;;;;;;3.30;2.73;;;11.80;99.90;;;;;;5078480;28;20205;-77
2023/10/24 04:29:46;;;;;;;6.87;2.67;;;11.90;99.90;;;;;;5081409;28;20175;-78
2023/10/24 04:32:12;;;;;;;12.13;3.10;;;11.90;99.90;;;;;;5076834;28;20654;-76
2023/10/24 04:34:38;;;;;;;3.20;2.90;;;11.90;99.90;;;;;;5078087;28;20179;-77
2023/10/24 04:37:04;;;;;;;3.10;2.77;;;11.90;99.90;;;;;;5076598;28;20525;-77
2023/10/24 04:39:30;;;;;;;6.47;3.50;;;11.90;99.90;;;;;;5073920;28;20178;-77
2023/10/24 04:41:56;;;;;;;4.03;2.80;;;11.90;99.90;;;;;;5075175;28;20248;-77
2023/10/24 04:44:22;;;;;;;10.87;3.00;;;11.90;99.90;;;;;;5074659;28;20171;-77
2023/10/24 04:46:47;;;;;;;6.50;3.20;;;11.80;99.90;;;;;;5075081;28;20212;-79
2023/10/24 04:49:15;;;;;;;4.87;2.90;;;11.70;99.90;;;;;;5056840;28;20214;-77
2023/10/24 04:51:42;;;;;;;5.70;3.13;;;11.70;99.90;;;;;;5073460;28;20210;-79
2023/10/24 04:54:08;;;;;;;7.40;3.00;;;11.70;99.90;;;;;;5074296;28;20179;-79
2023/10/24 04:56:34;;;;;;;4.77;2.73;;;11.70;99.90;;;;;;5074930;28;20170;-77
2023/10/24 04:59:00;;;;;;;5.23;3.03;;;11.70;99.90;;;;;;5074158;28;20185;-77
2023/10/24 05:01:26;;;;;;;4.07;2.73;;;11.70;99.90;;;;;;5083226;28;20185;-78
2023/10/24 05:03:51;;;;;;;3.27;2.90;;;11.70;99.90;;;;;;5076724;28;20264;-78
2023/10/24 05:06:17;;;;;;;5.40;3.13;;;11.80;99.90;;;;;;5075540;28;20178;-80
2023/10/24 05:08:43;;;;;;;4.43;2.63;;;11.80;99.90;;;;;;5075584;28;20166;-77
2023/10/24 05:11:08;;;;;;;8.10;3.23;;;11.70;99.90;;;;;;5088510;28;20187;-77
2023/10/24 05:13:34;;;;;;;5.10;2.90;;;11.70;99.90;;;;;;5097314;28;20178;-77
2023/10/24 05:16:00;;;;;;;7.17;3.37;;;11.70;99.90;;;;;;5097247;28;20170;-76
2023/10/24 05:18:26;;;;;;;6.30;3.00;;;11.80;99.90;;;;;;5085198;28;20536;-76
2023/10/24 05:20:51;;;;;;;3.37;3.07;;;11.80;99.90;;;;;;5073701;28;20545;-78
2023/10/24 05:23:17;;;;;;;8.40;3.33;;;11.80;99.90;;;;;;5075063;28;20261;-81
2023/10/24 05:25:43;;;;;;;7.10;3.30;;;11.80;99.90;;;;;;5075504;28;20307;-77
2023/10/24 05:28:09;;;;;;;3.70;2.90;;;11.90;99.90;;;;;;5074324;28;20218;-78
2023/10/24 05:30:38;;;;;;;3.83;3.00;;;12.00;99.90;;;;;;5074876;28;20836;-76
2023/10/24 05:33:05;;;;;;;6.17;3.50;;;12.10;99.90;;;;;;5074040;28;20210;-78
2023/10/24 05:35:32;;;;;;;9.60;3.97;;;12.20;99.90;;;;;;5074916;28;20200;-78
2023/10/24 05:37:58;;;;;;;5.13;2.80;;;12.20;99.90;;;;;;5073618;28;20220;-76
2023/10/24 05:40:24;;;;;;;5.43;3.07;;;12.30;99.90;;;;;;5079997;28;20175;-78
2023/10/24 05:42:50;;;;;;;6.80;3.13;;;12.30;99.90;;;;;;5075369;28;20265;-78
2023/10/24 05:45:17;;;;;;;5.53;3.00;;;12.30;99.90;;;;;;5074501;28;20258;-78
2023/10/24 05:47:42;;;;;;;6.20;2.60;;;12.30;99.90;;;;;;5077354;28;20217;-77
2023/10/24 05:50:09;;;;;;;5.50;2.97;;;12.40;99.90;;;;;;5081674;28;20190;-78
2023/10/24 05:52:34;;;;;;;8.83;3.10;;;12.50;99.90;;;;;;5074894;28;20634;-78
2023/10/24 05:55:00;;;;;;;7.80;2.90;;;12.50;99.90;;;;;;5074881;28;20189;-77
2023/10/24 05:57:28;;;;;;;4.83;2.67;;;12.50;99.90;;;;;;5073782;28;20183;-77
2023/10/24 05:59:53;;;;;;;7.53;3.10;;;12.50;99.90;;;;;;5073712;28;20175;-77
2023/10/24 06:02:19;;;;;;;5.10;2.90;;;12.50;99.90;;;;;;5072261;28;20209;-78
2023/10/24 06:04:45;;;;;;;6.03;3.23;;;12.40;99.90;;;;;;5071070;28;20182;-77
2023/10/24 06:07:11;;;;;;;5.77;3.00;;;12.40;99.90;;;;;;5072799;28;20214;-79
2023/10/24 06:09:37;;;;;;;6.03;2.93;;;12.40;99.90;;;;;;5073278;28;20588;-78
2023/10/24 06:12:03;;;;;;;3.60;3.10;;;12.40;99.90;;;;;;5073444;28;20183;-79
2023/10/24 06:14:28;;;;;;;3.47;3.00;;;12.40;99.90;;;;;;5071813;28;20187;-78
2023/10/24 06:16:54;;;;;;;11.40;4.03;;;12.30;99.90;;;;;;5072217;28;20187;-79
2023/10/24 06:19:20;;;;;;;12.07;3.90;;;12.20;99.90;;;;;;5073294;28;20649;-77
2023/10/24 06:21:46;;;;;;;11.67;4.23;;;12.20;99.90;;;;;;5071888;28;20183;-79
2023/10/24 06:24:12;;;;;;;9.10;3.63;;;12.20;99.90;;;;;;5078509;28;20179;-78
2023/10/24 06:26:38;;;;;;;5.57;3.30;;;12.30;99.90;;;;;;5075878;28;20230;-78
2023/10/24 06:29:04;;;;;;;5.77;3.00;;;12.30;99.90;;;;;;5077316;28;20179;-78
2023/10/24 06:31:29;;;;;;;9.07;3.37;;;12.30;99.90;;;;;;5074873;28;20183;-79
2023/10/24 06:33:55;;;;;;;6.57;2.77;;;12.30;99.90;;;;;;5074349;28;20186;-76
2023/10/24 06:36:21;;;;;;;5.13;3.10;;;12.30;99.90;;;;;;5074246;28;20178;-79
2023/10/24 06:38:47;;;;;;;6.83;3.20;;;12.30;99.90;;;;;;5072360;28;20700;-77
2023/10/24 06:41:13;;;;;;;6.07;3.10;;;12.40;99.90;;;;;;5072993;28;20220;-78
2023/10/24 06:43:39;;;;;;;6.87;3.37;;;12.40;99.90;;;;;;5073333;28;20175;-77
2023/10/24 06:46:05;;;;;;;4.07;2.83;;;12.40;99.90;;;;;;5081294;28;20174;-76
2023/10/24 06:48:31;;;;;;;5.23;2.80;;;12.50;99.90;;;;;;5089330;28;20781;-78
2023/10/24 06:50:58;;;;;;;4.07;2.90;;;12.50;99.90;;;;;;5094308;28;20266;-79
2023/10/24 06:53:24;;;;;;;6.93;2.70;;;12.50;99.90;;;;;;5084010;28;20236;-78
2023/10/24 06:55:50;;;;;;;8.93;2.87;;;12.60;99.90;;;;;;5087152;28;20204;-78
2023/10/24 06:58:16;;;;;;;5.90;3.43;;;12.60;99.90;;;;;;5083513;28;20168;-77
2023/10/24 07:00:43;;;;;;;3.50;2.93;;;12.70;99.90;;;;;;5080030;28;20181;-77
2023/10/24 07:03:09;;;;;;;10.83;5.40;;;12.80;99.90;;;;;;5076861;28;20185;-79
2023/10/24 07:05:35;;;;;;;9.40;3.33;;;12.80;99.90;;;;;;5077471;28;20277;-78
2023/10/24 07:08:01;;;;;;;5.97;3.57;;;12.80;99.90;;;;;;5085741;28;20209;-77
2023/10/24 07:10:26;;;;;;;3.87;3.07;;;12.70;99.90;;;;;;5092112;28;20176;-79
2023/10/24 07:12:52;;;;;;;6.33;2.87;;;12.70;99.90;;;;;;5078355;28;20288;-79
2023/10/24 07:15:18;;;;;;;5.80;3.23;;;12.70;99.90;;;;;;5083347;28;20681;-76
2023/10/24 07:17:44;;;;;;;12.73;3.40;;;12.80;99.90;;;;;;5079631;28;20647;-78
2023/10/24 07:20:10;;;;;;;6.07;3.20;;;12.70;99.90;;;;;;5079203;28;20183;-78
2023/10/24 07:22:36;;;;;;;5.53;2.97;;;12.70;99.90;;;;;;5077660;28;20198;-77
2023/10/24 07:25:02;;;;;;;11.50;3.47;;;12.70;99.90;;;;;;5076322;28;20223;-77
2023/10/24 07:27:28;;;;;;;5.60;2.97;;;12.80;99.90;;;;;;5077817;28;20282;-77
2023/10/24 07:29:53;;;;;;;3.73;2.80;;;12.80;99.90;;;;;;5075961;28;20178;-77
2023/10/24 07:32:19;;;;;;;5.83;3.33;;;12.80;99.90;;;;;;5077276;28;20622;-78
2023/10/24 07:34:48;;;;;;;7.03;2.83;;;12.90;99.90;;;;;;5076820;28;20174;-78
2023/10/24 07:37:15;;;;;;;7.00;3.20;;;12.90;99.90;;;;;;5090209;28;20171;-77
2023/10/24 07:39:40;;;;;;;3.97;2.70;;;12.90;99.90;;;;;;5086398;28;20269;-78
2023/10/24 07:42:06;;;;;;;7.30;2.97;;;12.90;99.90;;;;;;5079665;28;20229;-77
2023/10/24 07:44:32;;;;;;;5.10;3.50;;;12.80;99.90;;;;;;5078388;28;20267;-75
2023/10/24 07:46:57;;;;;;;5.80;3.13;;;12.80;99.90;;;;;;5077934;28;20242;-78
2023/10/24 07:49:23;;;;;;;9.73;3.87;;;12.80;99.90;;;;;;5078215;28;20210;-77
2023/10/24 07:51:49;;;;;;;3.93;3.17;;;12.80;99.90;;;;;;5077318;28;20204;-77
2023/10/24 07:54:15;;;;;;;6.07;3.53;;;12.80;99.90;;;;;;5076274;28;20185;-77
2023/10/24 07:56:40;;;;;;;7.67;4.93;;;12.80;99.90;;;;;;5077285;28;20183;-78
2023/10/24 07:59:10;;;;;;;7.67;4.50;;;12.80;99.90;;;;;;5077922;28;20258;-78
2023/10/24 08:01:36;;;;;;;7.73;3.67;;;12.80;99.90;;;;;;5076268;28;20183;-76
2023/10/24 08:04:02;;;;;;;9.10;3.83;;;12.80;99.90;;;;;;5077155;28;20178;-78
2023/10/24 08:06:27;;;;;;;5.93;3.50;;;12.80;99.90;;;;;;5075220;28;20202;-78
2023/10/24 08:08:53;;;;;;;6.67;3.27;;;12.80;99.90;;;;;;5076533;28;20297;-75
2023/10/24 08:11:19;;;;;;;10.17;3.80;;;12.80;99.90;;;;;;5076266;28;20168;-76
2023/10/24 08:13:44;;;;;;;6.07;3.53;;;12.90;99.90;;;;;;5076651;28;20173;-76
2023/10/24 08:16:10;;;;;;;4.57;4.00;;;12.90;99.90;;;;;;5076912;28;20209;-79
2023/10/24 08:18:38;;;;;;;7.60;3.93;;;12.80;99.90;;;;;;5076768;28;20254;-79
2023/10/24 08:21:04;;;;;;;9.03;3.83;;;12.80;99.90;;;;;;5078184;28;20171;-76
2023/10/24 08:23:30;;;;;;;5.53;3.30;;;12.70;99.90;;;;;;5089579;28;20206;-79
2023/10/24 08:25:59;;;;;;;4.43;3.23;;;12.80;99.90;;;;;;5097095;28;20203;-78
2023/10/24 08:28:25;;;;;;;8.20;3.50;;;12.80;99.90;;;;;;5096602;28;20211;-80
2023/10/24 08:30:51;;;;;;;7.07;3.87;;;12.90;99.90;;;;;;5081620;28;20232;-76
2023/10/24 08:33:20;;;;;;;5.13;3.20;;;12.90;99.90;;;;;;5077751;28;20267;-76
2023/10/24 08:35:47;;;;;;;10.23;3.53;;;12.90;99.90;;;;;;5077003;28;20175;-76
2023/10/24 08:38:12;;;;;;;7.47;3.67;;;12.80;99.90;;;;;;5076952;28;20182;-77
2023/10/24 08:40:40;;;;;;;9.40;4.20;;;12.80;99.90;;;;;;5076134;28;20193;-78
2023/10/24 08:43:13;;;;;;;8.50;3.77;;;12.70;99.90;;;;;;5075808;28;20178;-78
2023/10/24 08:45:39;;;;;;;5.93;4.13;;;12.80;99.90;;;;;;5073888;28;20203;-77
2023/10/24 08:48:05;;;;;;;7.10;3.80;;;12.80;99.90;;;;;;5081718;28;20207;-76
2023/10/24 08:50:34;;;;;;;6.03;3.80;;;12.80;99.90;;;;;;5075731;28;20186;-77
2023/10/24 08:53:01;;;;;;;7.67;3.90;;;12.80;99.90;;;;;;5074235;28;20183;-76
2023/10/24 08:55:28;;;;;;;7.23;3.47;;;12.70;99.90;;;;;;5075441;28;20202;-78
2023/10/24 08:57:56;;;;;;;6.20;3.70;;;12.70;99.90;;;;;;5074222;28;20176;-77
2023/10/24 09:00:22;;;;;;;7.93;3.90;;;12.70;99.90;;;;;;5075693;28;20186;-79
2023/10/24 09:02:48;;;;;;;7.87;4.00;;;12.60;99.90;;;;;;5075163;28;20174;-76
2023/10/24 09:05:15;;;;;;;6.67;4.37;;;12.60;99.90;;;;;;5075086;28;20232;-79
2023/10/24 09:07:41;;;;;;;9.30;4.30;;;12.60;99.90;;;;;;5074856;28;20209;-76
2023/10/24 09:10:08;;;;;;;7.07;4.10;;;12.60;99.90;;;;;;5073926;28;20228;-78
2023/10/24 09:12:34;;;;;;;7.90;3.83;;;13.40;99.90;;;;;;5074933;28;20233;-78
2023/10/24 09:15:00;;;;;;;6.60;3.73;;;12.70;99.90;;;;;;5075946;28;20187;-77
2023/10/24 09:17:29;;;;;;;7.47;3.97;;;12.70;99.90;;;;;;5074761;28;20284;-75
2023/10/24 09:19:56;;;;;;;9.60;3.63;;;12.70;99.90;;;;;;5075139;28;20171;-77
2023/10/24 09:22:22;;;;;;;7.50;3.70;;;12.80;99.90;;;;;;5075233;28;20184;-80
2023/10/24 09:24:49;;;;;;;10.77;4.27;;;12.80;99.90;;;;;;5074543;28;20702;-77
2023/10/24 09:27:23;;;;;;;23.73;6.70;;;12.90;99.90;;;;;;5075355;28;20202;-77
2023/10/24 09:29:50;;;;;;;31.13;7.03;;;12.80;99.90;;;;;;5080431;28;20163;-76
2023/10/24 09:32:16;;;;;;;13.60;5.23;;;12.80;99.90;;;;;;5078662;28;20185;-75
2023/10/24 09:34:44;;;;;;;8.23;4.87;;;12.80;99.90;;;;;;5081621;28;20186;-77
2023/10/24 09:37:13;;;;;;;9.57;4.37;;;12.80;99.90;;;;;;5074959;28;20163;-75
2023/10/24 09:39:54;;;;;;;8.70;4.03;;;12.80;99.90;;;;;;5075031;28;20171;-78
2023/10/24 09:42:31;;;;;;;11.77;3.67;;;12.90;99.90;;;;;;5074712;28;20202;-76
2023/10/24 09:45:00;;;;;;;11.37;3.70;;;12.90;99.90;;;;;;5076006;28;20159;-76
2023/10/24 09:47:26;;;;;;;9.53;3.80;;;12.80;99.90;;;;;;5084283;28;20266;-77
2023/10/24 09:49:57;;;;;;;8.80;3.97;;;12.80;99.90;;;;;;5075940;28;20166;-77
2023/10/24 09:52:25;;;;;;;7.43;3.40;;;12.80;99.90;;;;;;5073013;28;20215;-77
2023/10/24 09:54:51;;;;;;;5.67;3.33;;;12.70;99.90;;;;;;5074323;28;20188;-77
2023/10/24 09:57:19;;;;;;;4.53;3.27;;;12.70;99.90;;;;;;5075675;28;20200;-77
2023/10/24 09:59:57;;;;;;;6.97;3.27;;;12.70;99.90;;;;;;5079644;28;20274;-76
2023/10/24 10:02:26;;;;;;;5.83;3.60;;;12.70;99.90;;;;;;5087718;28;20522;-79
2023/10/24 10:04:53;;;;;;;8.00;4.20;;;12.70;99.90;;;;;;5085817;28;20246;-76
2023/10/24 10:07:22;;;;;;;6.23;3.60;;;12.60;99.90;;;;;;5077811;28;20347;-77
2023/10/24 10:09:53;;;;;;;6.20;3.40;;;12.60;99.90;;;;;;5078635;28;20177;-77
2023/10/24 10:12:19;;;;;;;8.70;4.00;;;12.70;99.90;;;;;;5076045;28;20721;-79
2023/10/24 10:15:29;;;;;;;6.00;3.93;;;12.70;99.90;;;;;;5077061;28;20205;-76
2023/10/24 10:18:03;;;;;;;12.50;4.13;;;12.60;99.90;;;;;;5055768;28;20224;-77
2023/10/24 10:20:37;;;;;;;8.00;4.30;;;12.60;99.90;;;;;;5075913;28;20170;-78
2023/10/24 10:23:09;;;;;;;7.17;4.50;;;12.60;99.90;;;;;;5080715;28;20599;-77
2023/10/24 10:25:58;;;;;;;6.17;3.47;;;12.60;99.90;;;;;;5075503;28;20315;-77
2023/10/24 10:28:39;;;;;;;9.57;4.20;;;12.70;99.90;;;;;;5075183;28;20665;-77
2023/10/24 10:31:26;;;;;;;8.17;3.53;;;12.70;99.90;;;;;;5074734;28;20254;-79
2023/10/24 10:33:54;;;;;;;6.17;4.00;;;12.70;99.90;;;;;;5074965;28;20170;-78
2023/10/24 10:36:23;;;;;;;8.27;3.80;;;12.70;99.90;;;;;;5081007;28;20166;-78
2023/10/24 10:38:49;;;;;;;8.50;3.90;;;12.80;99.90;;;;;;5078689;28;20179;-78
2023/10/24 10:41:23;;;;;;;3.87;3.47;;;12.70;99.90;;;;;;5072117;28;20266;-77
2023/10/24 10:43:53;;;;;;;6.80;4.30;;;12.80;99.90;;;;;;5075007;28;20175;-76
2023/10/24 10:46:23;;;;;;;6.83;3.90;;;12.80;99.90;;;;;;5075040;28;20696;-78
2023/10/24 10:48:50;;;;;;;4.07;3.13;;;12.80;99.90;;;;;;5073439;28;20179;-77
2023/10/24 10:51:20;;;;;;;7.20;3.60;;;12.80;99.90;;;;;;5072412;28;20185;-76
2023/10/24 10:54:20;;;;;;;11.00;3.80;;;12.80;99.90;;;;;;5073858;28;20166;-78
2023/10/24 10:56:48;;;;;;;9.80;4.10;;;12.90;99.90;;;;;;5074667;28;20156;-79
2023/10/24 10:59:53;;;;;;;4.83;3.57;;;13.00;99.90;;;;;;5072602;28;20216;-80
2023/10/24 11:02:28;;;;;;;4.77;3.53;;;13.00;99.90;;;;;;5030965;28;20184;-77
2023/10/24 11:04:54;;;;;;;6.40;4.17;;;13.00;99.90;;;;;;5015599;28;20287;-75
2023/10/24 11:07:52;;;;;;;7.53;4.07;;;13.00;99.90;;;;;;5038200;28;20269;-76
2023/10/24 11:10:19;;;;;;;5.53;3.47;;;13.10;99.90;;;;;;5033282;28;20817;-76
2023/10/24 11:12:48;;;;;;;6.47;3.70;;;13.10;99.90;;;;;;5032403;28;20173;-77
2023/10/24 11:15:14;;;;;;;6.67;4.20;;;13.20;99.90;;;;;;5031889;28;20184;-79
2023/10/24 11:17:43;;;;;;;11.90;4.83;;;13.20;99.90;;;;;;5015879;28;20177;-78
2023/10/24 11:20:10;;;;;;;9.03;3.77;;;13.30;99.90;;;;;;5043139;28;20246;-77
2023/10/24 11:22:37;;;;;;;7.00;3.47;;;13.30;99.90;;;;;;5031148;28;20686;-77
2023/10/24 11:25:11;;;;;;;7.70;3.97;;;13.30;99.90;;;;;;5031508;28;20232;-75
2023/10/24 11:27:38;;;;;;;5.30;3.83;;;13.30;99.90;;;;;;5014645;28;20212;-76
2023/10/24 11:30:06;;;;;;;5.37;3.80;;;13.40;99.90;;;;;;5031403;28;20635;-77
2023/10/24 11:32:38;;;;;;;8.60;4.30;;;13.50;99.90;;;;;;5031891;28;20725;-78
2023/10/24 11:35:04;;;;;;;5.47;3.60;;;13.50;99.90;;;;;;5037582;28;20181;-77
2023/10/24 11:37:30;;;;;;;6.67;3.63;;;13.50;99.90;;;;;;5065406;28;20187;-77
2023/10/24 11:39:58;;;;;;;8.23;4.40;;;13.50;99.90;;;;;;5096477;28;20160;-76
2023/10/24 11:42:24;;;;;;;10.97;4.50;;;13.50;99.90;;;;;;5086829;28;20181;-77
2023/10/24 11:44:53;;;;;;;16.07;4.90;;;13.60;99.90;;;;;;5080955;28;20525;-76
2023/10/24 11:47:19;;;;;;;13.93;4.70;;;13.50;99.90;;;;;;5085089;28;20293;-79
2023/10/24 11:49:46;;;;;;;11.30;4.47;;;13.50;99.90;;;;;;5079398;28;20200;-77
2023/10/24 11:52:15;;;;;;;8.83;4.27;;;13.50;99.90;;;;;;5077643;28;20175;-78
2023/10/24 11:54:41;;;;;;;7.43;3.77;;;13.50;99.90;;;;;;5076009;28;20202;-78
2023/10/24 11:57:07;;;;;;;6.93;4.17;;;13.50;99.90;;;;;;5085900;28;20178;-76
2023/10/24 11:59:36;;;;;;;5.63;3.87;;;13.50;99.90;;;;;;5081502;28;20201;-77
2023/10/24 12:02:03;;;;;;;7.63;3.60;;;13.60;99.90;;;;;;5075690;28;20179;-76
2023/10/24 12:04:30;;;;;;;11.57;3.97;;;13.60;99.90;;;;;;5076178;28;20209;-78
2023/10/24 12:07:09;;;;;;;5.73;3.80;;;13.80;99.90;;;;;;5073971;28;20560;-79
2023/10/24 12:09:35;;;;;;;3.93;3.43;;;13.90;99.90;;;;;;5076501;28;20539;-76
2023/10/24 12:12:02;;;;;;;7.37;4.13;;;14.00;99.90;;;;;;5076135;28;20175;-79
2023/10/24 12:14:28;;;;;;;5.67;3.57;;;14.00;99.90;;;;;;5076020;28;20262;-76
2023/10/24 12:16:54;;;;;;;6.60;4.03;;;14.00;99.90;;;;;;5075481;28;20264;-77
2023/10/24 12:19:20;;;;;;;8.53;3.90;;;14.00;99.90;;;;;;5075748;28;20167;-76
2023/10/24 12:21:46;;;;;;;4.83;4.07;;;14.10;99.90;;;;;;5074262;28;20175;-79
2023/10/24 12:24:12;;;;;;;8.07;4.10;;;14.20;99.90;;;;;;5075447;28;20178;-80
2023/10/24 12:26:39;;;;;;;7.93;4.00;;;14.20;99.90;;;;;;5081116;28;20329;-80
2023/10/24 12:29:09;;;;;;;6.53;4.37;;;14.20;99.90;;;;;;5083016;28;20167;-80
2023/10/24 12:31:35;;;;;;;7.43;3.40;;;14.20;99.90;;;;;;5076571;28;20156;-80
2023/10/24 12:34:02;;;;;;;5.97;3.43;;;14.40;99.90;;;;;;5076103;28;20198;-79
2023/10/24 12:36:28;;;;;;;6.27;3.50;;;14.40;99.90;;;;;;5075884;28;20701;-80
2023/10/24 12:38:55;;;;;;;6.70;3.67;;;14.30;99.90;;;;;;5075537;28;20204;-79
2023/10/24 12:41:21;;;;;;;4.60;3.77;;;14.50;99.90;;;;;;5078818;28;20209;-79
2023/10/24 12:43:47;;;;;;;4.97;3.67;;;14.40;99.90;;;;;;5090646;28;20175;-79
2023/10/24 12:46:13;;;;;;;5.50;3.70;;;14.40;99.90;;;;;;5080526;28;20182;-77